createdAt,value
2018-03-07T00:01:54.924Z,38.10
2018-03-07T00:04:22.457Z,38.40
2018-03-07T00:06:50.765Z,38.20
2018-03-07T00:09:18.311Z,38.00
2018-03-07T00:11:46.616Z,38.40
2018-03-07T00:14:14.168Z,38.50
2018-03-07T00:16:41.693Z,38.30
2018-03-07T00:19:09.246Z,38.10
2018-03-07T00:21:36.776Z,37.70
2018-03-07T00:24:04.327Z,37.40
2018-03-07T00:26:31.861Z,39.40
2018-03-07T00:29:00.177Z,38.50
2018-03-07T00:31:27.693Z,38.60
2018-03-07T00:33:55.981Z,37.80
2018-03-07T00:36:23.509Z,37.90
2018-03-07T00:38:51.041Z,37.70
2018-03-07T00:41:18.584Z,38.00
2018-03-07T00:43:46.106Z,37.80
2018-03-07T00:46:14.415Z,38.40
2018-03-07T00:48:41.936Z,38.30
2018-03-07T00:51:10.238Z,39.20
2018-03-07T00:53:37.760Z,39.00
2018-03-07T00:56:05.296Z,39.00
2018-03-07T00:58:32.812Z,39.10
2018-03-07T01:01:00.369Z,38.90
2018-03-07T01:03:27.901Z,38.10
2018-03-07T01:05:55.462Z,39.10
2018-03-07T01:08:22.988Z,39.00
2018-03-07T01:10:50.534Z,39.20
2018-03-07T01:13:18.081Z,38.50
2018-03-07T01:15:45.603Z,38.60
2018-03-07T01:18:13.920Z,38.10
2018-03-07T01:20:41.444Z,38.30
2018-03-07T01:23:08.980Z,37.80
2018-03-07T01:25:36.504Z,37.90
2018-03-07T01:28:04.042Z,38.50
2018-03-07T01:30:32.340Z,38.10
2018-03-07T01:32:59.882Z,38.20
2018-03-07T01:35:28.824Z,39.40
2018-03-07T01:37:56.394Z,39.40
2018-03-07T01:40:23.919Z,39.20
2018-03-07T01:42:51.477Z,38.70
2018-03-07T01:45:19.001Z,38.20
2018-03-07T01:47:47.292Z,39.00
2018-03-07T01:50:15.603Z,38.70
2018-03-07T01:52:43.137Z,38.70
2018-03-07T01:55:10.684Z,38.80
2018-03-07T01:57:38.965Z,39.10
2018-03-07T02:00:07.271Z,38.90
2018-03-07T02:02:34.808Z,39.00
2018-03-07T02:05:03.116Z,39.10
2018-03-07T02:07:30.637Z,39.20
2018-03-07T02:09:58.954Z,39.40
2018-03-07T02:12:26.478Z,39.60
2018-03-07T02:14:54.807Z,38.50
2018-03-07T02:17:22.334Z,38.70
2018-03-07T02:19:49.856Z,38.60
2018-03-07T02:22:17.413Z,39.20
2018-03-07T02:24:44.937Z,39.50
2018-03-07T02:27:12.472Z,39.00
2018-03-07T02:29:40.007Z,39.40
2018-03-07T02:32:07.537Z,39.20
2018-03-07T02:34:35.071Z,39.20
2018-03-07T02:37:02.608Z,39.30
2018-03-07T02:39:30.135Z,39.40
2018-03-07T02:41:57.702Z,39.60
2018-03-07T02:44:25.993Z,40.40
2018-03-07T02:46:54.345Z,39.00
2018-03-07T02:49:21.885Z,38.90
2018-03-07T02:51:49.405Z,39.30
2018-03-07T02:54:16.950Z,39.20
2018-03-07T02:56:45.242Z,39.50
2018-03-07T02:59:13.554Z,38.90
2018-03-07T03:01:41.068Z,39.40
2018-03-07T03:04:09.370Z,39.10
2018-03-07T03:06:36.901Z,39.00
2018-03-07T03:09:05.230Z,39.60
2018-03-07T03:11:32.767Z,39.60
2018-03-07T03:14:00.321Z,39.20
2018-03-07T03:16:27.853Z,39.30
2018-03-07T03:18:55.368Z,39.60
2018-03-07T03:21:22.901Z,39.30
2018-03-07T03:23:51.184Z,39.80
2018-03-07T03:26:18.716Z,39.80
2018-03-07T03:28:46.224Z,38.90
2018-03-07T03:31:13.755Z,40.10
2018-03-07T03:33:42.032Z,39.30
2018-03-07T03:36:10.356Z,39.50
2018-03-07T03:38:37.881Z,39.70
2018-03-07T03:41:05.391Z,39.50
2018-03-07T03:43:32.919Z,39.80
2018-03-07T03:46:00.453Z,39.60
2018-03-07T03:48:27.998Z,38.40
2018-03-07T03:50:56.315Z,39.10
2018-03-07T03:53:23.850Z,39.00
2018-03-07T03:55:51.381Z,39.90
2018-03-07T03:58:18.923Z,39.40
2018-03-07T04:00:46.443Z,39.50
2018-03-07T04:03:14.002Z,39.70
2018-03-07T04:05:41.527Z,39.70
2018-03-07T04:08:09.049Z,39.60
2018-03-07T04:10:36.575Z,39.40
2018-03-07T04:13:04.087Z,39.40
2018-03-07T04:15:31.635Z,39.70
2018-03-07T04:17:59.170Z,40.00
2018-03-07T04:20:26.698Z,39.80
2018-03-07T04:22:55.020Z,39.90
2018-03-07T04:25:22.569Z,40.20
2018-03-07T04:27:50.108Z,39.20
2018-03-07T04:30:18.400Z,40.20
2018-03-07T04:32:45.924Z,40.50
2018-03-07T04:35:13.472Z,40.10
2018-03-07T04:37:40.992Z,39.60
2018-03-07T04:40:08.501Z,39.10
2018-03-07T04:42:36.023Z,39.90
2018-03-07T04:45:03.545Z,38.90
2018-03-07T04:47:31.846Z,39.20
2018-03-07T04:49:59.357Z,39.30
2018-03-07T04:52:26.897Z,40.10
2018-03-07T04:54:54.416Z,40.10
2018-03-07T04:57:21.948Z,40.70
2018-03-07T04:59:50.227Z,39.70
2018-03-07T05:02:18.548Z,40.30
2018-03-07T05:04:46.063Z,40.60
2018-03-07T05:07:14.356Z,40.10
2018-03-07T05:09:42.671Z,40.30
2018-03-07T05:12:11.001Z,40.50
2018-03-07T05:14:39.295Z,40.50
2018-03-07T05:17:06.823Z,40.50
2018-03-07T05:19:34.354Z,40.40
2018-03-07T05:22:01.863Z,40.80
2018-03-07T05:24:30.172Z,40.70
2018-03-07T05:26:57.683Z,40.50
2018-03-07T05:29:25.210Z,40.40
2018-03-07T05:31:52.727Z,40.30
2018-03-07T05:34:21.058Z,40.50
